Concrete, North Dakota
Current Conditions -  °F | °C
As of 10:55 AM on Friday 28 Nov 2014 (Local Time) from K2C8 Reporting Station
Overcast Overcast  
Wind Chill:   Ceiling: 1000
Heat Index: 12°   Visibility: 9mi
Dew Point:   Wind: 6mph
Humidity: 85%   Direction: 90°E
Pressure: 29.96"   Gusts: NA
Location:  48.8218°N, 97.697°W
Report Text: K2C8 281655Z AUTO 09005KT 9SM FEW002 BKN010 OVC060 M11/M13 A2996 RMK AO2
Loading
Personal Weather Stations






























Interactive Weather Map New forecast layout! Learn more

10-Day Weather Forecast

Advertisements
Track Severe Weather on mobile